Hermann - S — V2EI6 — position and weather

sailwx.info

Track history (hours):
 
Tides and Currents Weather Stations Pressure Air Temp Water Temp Dewpoint Dewpoint Depression Visibility Wind Speed Wind Dir Waves Ship Positions

Hermann - S

Last reported at 2015-Mar-28 14:33 UTC. Time now 2015-Mar-29 04:24 UTC.
Position N 41°21' E 029°13'.

Length 190 m; draft 12.8 m.

Type: Cargo ship. MMSI: 305441000.

Date/timePositionNaut miles runAvg speedWind from/ knotsBaromVisibWave heightAir tempDewpointWater temp
2015-Mar-28 14:33N 41°21' E 029°13'23 9.4
2015-Mar-28 12:07N 41°00' E 028°60'4 7.6
2015-Mar-28 11:33N 40°56' E 028°59'6 6.1
2015-Mar-28 10:33N 40°52' E 028°53'2 2.4
2015-Mar-28 09:33N 40°50' E 028°51'7 6.9
2015-Mar-28 08:33N 40°43' E 028°49'2 1.9
2015-Mar-28 07:33N 40°42' E 028°51'0 0.4
2015-Mar-28 06:33N 40°42' E 028°51'0 0.5
2015-Mar-28 05:33N 40°43' E 028°50'1 0.6
2015-Mar-28 04:33N 40°43' E 028°50'1 0.5
2015-Mar-28 03:32N 40°44' E 028°50'1 0.6
2015-Mar-28 02:31N 40°44' E 028°49'1 0.5
2015-Mar-28 01:33N 40°44' E 028°49'0 0.5
2015-Mar-28 00:33N 40°45' E 028°48'0 0.4
2015-Mar-27 23:33N 40°45' E 028°48'0 0.3
2015-Mar-27 22:33N 40°45' E 028°48'0 0.0
2015-Mar-27 21:27N 40°45' E 028°48'0 0.4
2015-Mar-27 20:26N 40°46' E 028°47'0 0.4
2015-Mar-27 19:32N 40°46' E 028°47'1 0.5
2015-Mar-27 18:14N 40°46' E 028°46'0 0.5
2015-Mar-27 17:26N 40°46' E 028°46'1 0.7
2015-Mar-27 16:32N 40°46' E 028°45'1 0.6
2015-Mar-27 15:32N 40°46' E 028°44'1 0.6
2015-Mar-27 14:31N 40°46' E 028°43'1 0.6
2015-Mar-27 13:32N 40°46' E 028°42'1 0.6
2015-Mar-27 12:33N 40°46' E 028°42'1 0.7
2015-Mar-27 11:21N 40°46' E 028°41'0 0.5
2015-Mar-27 10:30N 40°46' E 028°40'1 0.5
2015-Mar-27 09:15N 40°45' E 028°40'0 0.4
2015-Mar-27 08:30N 40°45' E 028°39'0 0.2
2015-Mar-27 07:33N 40°45' E 028°39'  
2015-Mar-23 13:31N 36°24' E 014°48'1211.2
2015-Mar-23 12:26N 36°25' E 014°33'1011.2
2015-Mar-23 11:33N 36°26' E 014°21'1111.2
2015-Mar-23 10:33N 36°29' E 014°07'1111.1
2015-Mar-23 09:33N 36°33' E 013°54'49410.7
2015-Mar-21 11:33N 37°04' E 003°38'4110.2
2015-Mar-21 07:32N 36°58' E 002°47'386 9.4
2015-Mar-19 14:30N 36°05' W 005°09'1010.8
2015-Mar-19 13:33N 36°06' W 005°22'2 2.1
2015-Mar-19 12:31N 36°08' W 005°22'0 0.1
2015-Mar-19 11:10N 36°08' W 005°22'0 0.1
2015-Mar-19 10:10N 36°08' W 005°22'0 0.1
2015-Mar-19 08:25N 36°08' W 005°22'0 0.0
2015-Mar-19 07:19N 36°08' W 005°22'0 0.0
2015-Mar-19 05:32N 36°08' W 005°22'4 4.0
2015-Mar-19 04:33N 36°04' W 005°20'4 4.4
2015-Mar-19 03:33N 36°00' W 005°20'7 6.8
2015-Mar-19 02:33N 35°58' W 005°28'  
Track history (hours):
 
Tides and Currents Weather Stations Pressure Air Temp Water Temp Dewpoint Dewpoint Depression Visibility Wind Speed Wind Dir Waves Ship Positions

Hermann - S

Last reported at 2015-Mar-28 14:33 UTC. Time now 2015-Mar-29 04:24 UTC.
Position N 41°21' E 029°13'.

Length 190 m; draft 12.8 m.

Type: Cargo ship. MMSI: 305441000.

Date/timePositionNaut miles runAvg speedWind from/ knotsBaromVisibWave heightAir tempDewpointWater temp
2015-Mar-28 14:33N 41°21' E 029°13'23 9.4
2015-Mar-28 12:07N 41°00' E 028°60'4 7.6
2015-Mar-28 11:33N 40°56' E 028°59'6 6.1
2015-Mar-28 10:33N 40°52' E 028°53'2 2.4
2015-Mar-28 09:33N 40°50' E 028°51'7 6.9
2015-Mar-28 08:33N 40°43' E 028°49'2 1.9
2015-Mar-28 07:33N 40°42' E 028°51'0 0.4
2015-Mar-28 06:33N 40°42' E 028°51'0 0.5
2015-Mar-28 05:33N 40°43' E 028°50'1 0.6
2015-Mar-28 04:33N 40°43' E 028°50'1 0.5
2015-Mar-28 03:32N 40°44' E 028°50'1 0.6
2015-Mar-28 02:31N 40°44' E 028°49'1 0.5
2015-Mar-28 01:33N 40°44' E 028°49'0 0.5
2015-Mar-28 00:33N 40°45' E 028°48'0 0.4
2015-Mar-27 23:33N 40°45' E 028°48'0 0.3
2015-Mar-27 22:33N 40°45' E 028°48'0 0.0
2015-Mar-27 21:27N 40°45' E 028°48'0 0.4
2015-Mar-27 20:26N 40°46' E 028°47'0 0.4
2015-Mar-27 19:32N 40°46' E 028°47'1 0.5
2015-Mar-27 18:14N 40°46' E 028°46'0 0.5
2015-Mar-27 17:26N 40°46' E 028°46'1 0.7
2015-Mar-27 16:32N 40°46' E 028°45'1 0.6
2015-Mar-27 15:32N 40°46' E 028°44'1 0.6
2015-Mar-27 14:31N 40°46' E 028°43'1 0.6
2015-Mar-27 13:32N 40°46' E 028°42'1 0.6
2015-Mar-27 12:33N 40°46' E 028°42'1 0.7
2015-Mar-27 11:21N 40°46' E 028°41'0 0.5
2015-Mar-27 10:30N 40°46' E 028°40'1 0.5
2015-Mar-27 09:15N 40°45' E 028°40'0 0.4
2015-Mar-27 08:30N 40°45' E 028°39'0 0.2
2015-Mar-27 07:33N 40°45' E 028°39'  
2015-Mar-23 13:31N 36°24' E 014°48'1211.2
2015-Mar-23 12:26N 36°25' E 014°33'1011.2
2015-Mar-23 11:33N 36°26' E 014°21'1111.2
2015-Mar-23 10:33N 36°29' E 014°07'1111.1
2015-Mar-23 09:33N 36°33' E 013°54'49410.7
2015-Mar-21 11:33N 37°04' E 003°38'4110.2
2015-Mar-21 07:32N 36°58' E 002°47'386 9.4
2015-Mar-19 14:30N 36°05' W 005°09'1010.8
2015-Mar-19 13:33N 36°06' W 005°22'2 2.1
2015-Mar-19 12:31N 36°08' W 005°22'0 0.1
2015-Mar-19 11:10N 36°08' W 005°22'0 0.1
2015-Mar-19 10:10N 36°08' W 005°22'0 0.1
2015-Mar-19 08:25N 36°08' W 005°22'0 0.0
2015-Mar-19 07:19N 36°08' W 005°22'0 0.0
2015-Mar-19 05:32N 36°08' W 005°22'4 4.0
2015-Mar-19 04:33N 36°04' W 005°20'4 4.4
2015-Mar-19 03:33N 36°00' W 005°20'7 6.8
2015-Mar-19 02:33N 35°58' W 005°28'  

Dump ship's entire track history